aviador You're here:

LFQG Decoded Metar

NEVERS in FRANCE
Report Time2018-01-17 06:30:00
UTC Time2018-01-17 06:49:44
Flight Rules vfr VFR
Wind250° at 14 kt
W.Decomp.*RWY 30: 9.0 kt HW 10.7 kt LCW
W.Rank250° ranks 6
Current wind is above 250° avg. (7.2)
Visibility9999 m
Phenomena:N/A
Clouds:Scattered 040 Hf
Scattered 120 Hf
Expected CloudBase > 1,600 ft AGL from Temp-Dew spread
CeilingNone
Temp05°C (ISA -9)
Dew Point01°C (76% RH)
AAT-1.9°C
QNH1012 hPa
Density Alt-344 ft
Elevation594 ft
Report Wrong Elevation
Raw Report
METAR LFQG 170630Z AUTO 25014KT 9999 SCT040 SCT120 05/01 Q1012=

Extra information for LFQG:More info

Metar Taf Metar & Taf Last 4 Metars F.Rules Stats Wind Profile Meteogram Temp Stats Airport Information Weather charts Add Link Nearby VenuesMetar ALERT Operation Metar Decoded Social comments